Latest Weather Observations for Parndana

IDS60801

Issued at 1:01 pm CST Thursday 2 July 2015 (issued every 30 minutes, with the page automatically refreshed every 10 minutes)

About weather observations | Map of weather stations | Latest weather observations for SA | Other Formats
Station Details ID: 022843 Name: PARNDANA CFS AWS Lat: -35.79 Lon: 137.25 Height: 165.0 m
Data from the previous 72 hours. | See also: Recent months at Parndana
Date/Time
CST
Temp
°C
App
Temp
°C
Dew
Point
Rel
Hum
%
Delta-T
°C
Wind Press
QNH
hPa
Press
MSL
hPa
Rain
since 9 am
mm
Dir
 
Spd
km/h
Gust
km/h
Spd
kts
Gust
kts
02/01:00pm 12.6 9.6 5.8 63 3.2 SW 11 19 6 10 - - 0.0
02/12:30pm 12.0 8.5 5.6 65 3.0 SSW 13 22 7 12 - - 0.0
02/12:00pm 12.2 8.5 6.5 68 2.7 S 15 22 8 12 - - 0.0
02/11:30am 12.0 8.0 6.5 69 2.6 SSW 17 22 9 12 - - 0.0
02/11:00am 12.1 7.8 7.0 71 2.5 S 19 26 10 14 - - 0.0
02/10:30am 11.6 7.7 7.3 75 2.1 S 17 26 9 14 - - 0.0
02/10:00am 11.6 9.7 7.5 76 2.0 SSW 7 11 4 6 - - 0.0
02/09:30am 10.8 8.4 7.1 78 1.8 SSW 9 13 5 7 - - 0.0
02/09:00am 10.4 7.6 7.1 80 1.6 SSW 11 13 6 7 - - 0.4
02/08:30am 10.0 7.3 7.3 83 1.3 SSW 11 15 6 8 - - 0.4
02/08:00am 9.9 7.2 7.5 85 1.2 SSW 11 13 6 7 - - 0.4
02/07:30am 10.3 7.4 8.2 87 1.0 SSW 13 20 7 11 - - 0.4
02/07:00am 10.9 7.1 9.0 88 1.0 SSW 19 24 10 13 - - 0.4
02/06:30am 11.1 8.3 10.0 93 0.6 SSW 15 19 8 10 - - 0.4
02/06:00am 10.9 8.5 10.0 94 0.5 SSW 13 17 7 9 - - 0.4
02/05:30am 11.2 8.8 10.1 93 0.6 SSW 13 17 7 9 - - 0.4
02/05:00am 11.6 9.4 10.8 95 0.4 SW 13 22 7 12 - - 0.2
02/04:30am 10.9 8.6 10.3 96 0.3 WSW 13 17 7 9 - - 0.0
02/04:00am 10.1 7.2 9.5 96 0.3 W 15 17 8 9 - - 0.0
02/03:30am 9.6 6.9 9.0 96 0.3 W 13 15 7 8 - - 0.0
02/03:00am 8.8 6.3 8.0 95 0.4 WNW 11 13 6 7 - - 0.0
02/02:30am 9.3 6.5 8.5 95 0.4 WNW 13 13 7 7 - - 0.0
02/02:00am 9.8 7.1 9.0 95 0.4 WNW 13 15 7 8 - - 0.0
02/01:30am 9.7 7.0 8.9 95 0.4 WNW 13 17 7 9 - - 0.0
02/01:00am 8.8 6.3 8.0 95 0.4 WNW 11 15 6 8 - - 0.0
02/12:30am 8.8 6.6 7.9 94 0.4 WNW 9 13 5 7 - - 0.0
02/12:00am 8.9 6.7 8.0 94 0.4 NW 9 13 5 7 - - 0.0
 
Date/Time
CST
Temp
°C
App
Temp
°C
Dew
Point
Rel
Hum
%
Delta-T
°C
Wind Press
QNH
hPa
Press
MSL
hPa
Rain
since 9 am
mm
Dir
 
Spd
km/h
Gust
km/h
Spd
kts
Gust
kts
01/11:30pm 9.3 6.8 8.2 93 0.5 WNW 11 13 6 7 - - 0.0
01/11:00pm 10.0 7.8 9.2 95 0.4 WNW 11 15 6 8 - - 0.0
01/10:30pm 10.0 7.4 9.2 95 0.4 WNW 13 15 7 8 - - 0.0
01/10:00pm 9.8 7.6 9.2 96 0.3 NW 11 13 6 7 - - 0.0
01/09:30pm 10.0 7.8 9.2 95 0.4 NW 11 13 6 7 - - 0.0
01/09:00pm 10.3 8.1 9.4 94 0.5 NW 11 13 6 7 - - 0.0
01/08:30pm 10.7 8.1 9.5 92 0.6 NW 13 17 7 9 - - 0.0
01/08:00pm 10.7 8.0 8.8 88 0.9 NW 13 17 7 9 - - 0.0
01/07:30pm 10.9 7.7 8.5 85 1.2 NW 15 20 8 11 - - 0.0
01/07:00pm 11.3 7.1 8.3 82 1.5 NW 20 28 11 15 - - 0.0
01/06:30pm 11.3 7.9 7.6 78 1.8 NW 15 24 8 13 - - 0.0
01/06:00pm 11.3 7.4 7.0 75 2.1 NW 17 20 9 11 - - 0.0
01/05:30pm 11.2 6.8 6.7 74 2.1 NW 19 24 10 13 - - 0.0
01/05:00pm 11.2 7.2 6.5 73 2.2 NW 17 22 9 12 - - 0.0
01/04:30pm 11.3 6.9 6.6 73 2.2 NW 19 26 10 14 - - 0.0
01/04:00pm 11.5 7.2 6.8 73 2.3 NW 19 28 10 15 - - 0.0
01/03:30pm 11.7 6.9 7.2 74 2.2 NW 22 30 12 16 - - 0.0
01/03:00pm 11.9 6.3 7.0 72 2.4 NW 26 33 14 18 - - 0.0
01/02:30pm 11.7 5.6 6.6 71 2.4 NW 28 35 15 19 - - 0.0
01/02:00pm 12.0 6.0 6.9 71 2.5 NW 28 37 15 20 - - 0.0
01/01:30pm 12.0 6.2 6.3 68 2.7 NW 26 32 14 17 - - 0.0
01/01:00pm 12.5 7.0 7.4 71 2.5 NW 26 37 14 20 - - 0.0
01/12:30pm 11.9 7.1 7.2 73 2.3 NW 22 32 12 17 - - 0.0
01/12:00pm 12.0 6.0 6.9 71 2.5 NW 28 37 15 20 - - 0.0
01/11:30am 12.2 5.8 7.1 71 2.5 NW 30 37 16 20 - - 0.0
01/11:00am 12.4 7.0 7.9 74 2.2 NW 26 37 14 20 - - 0.0
01/10:30am 12.3 7.2 7.6 73 2.3 NW 24 33 13 18 - - 0.0
01/10:00am 12.1 6.9 7.4 73 2.3 NW 24 33 13 18 - - 0.0
01/09:30am 11.7 6.9 7.2 74 2.2 NNW 22 28 12 15 - - 0.0
01/09:00am 11.3 7.0 7.2 76 2.0 NNW 19 22 10 12 - - 0.0
01/08:30am 10.9 6.9 6.8 76 2.0 NNW 17 20 9 11 - - 0.0
01/08:00am 10.2 6.1 6.0 75 2.0 NW 17 22 9 12 - - 0.0
01/07:30am 10.2 5.8 6.4 77 1.8 NW 19 22 10 12 - - 0.0
01/07:00am 11.0 5.4 7.1 77 1.9 NW 26 33 14 18 - - 0.0
01/06:30am 11.1 7.6 7.4 78 1.8 NW 15 24 8 13 - - 0.0
01/06:00am 11.0 6.7 7.1 77 1.9 NW 19 22 10 12 - - 0.0
01/05:30am 11.1 7.6 7.0 76 2.0 NNW 15 19 8 10 - - 0.0
01/05:00am 10.6 7.6 7.5 81 1.5 NW 13 17 7 9 - - 0.0
01/04:30am 10.0 8.2 7.8 86 1.1 NW 7 13 4 7 - - 0.0
01/04:00am 9.8 8.9 7.6 86 1.1 NW 2 4 1 2 - - 0.0
01/03:30am 10.1 7.5 7.7 85 1.2 NNW 11 17 6 9 - - 0.0
01/03:00am 10.0 7.0 7.9 87 1.0 NNW 13 17 7 9 - - 0.0
01/02:30am 9.7 7.3 8.8 94 0.4 NNW 11 13 6 7 - - 0.0
01/02:00am 8.9 6.8 8.3 96 0.3 NW 9 11 5 6 - - 0.0
01/01:30am 9.3 7.3 8.7 96 0.3 NNW 9 11 5 6 - - 0.0
01/01:00am 8.2 6.4 7.8 97 0.2 NNW 7 9 4 5 - - 0.0
01/12:30am 8.0 5.7 7.6 97 0.2 NNW 9 13 5 7 - - 0.0
01/12:00am 8.3 6.5 7.9 97 0.2 NNW 7 9 4 5 - - 0.0
 
Date/Time
CST
Temp
°C
App
Temp
°C
Dew
Point
Rel
Hum
%
Delta-T
°C
Wind Press
QNH
hPa
Press
MSL
hPa
Rain
since 9 am
mm
Dir
 
Spd
km/h
Gust
km/h
Spd
kts
Gust
kts
30/11:30pm 7.9 5.9 7.3 96 0.3 N 7 7 4 4 - - 0.0
30/11:00pm 8.4 6.5 7.6 95 0.4 NNW 7 9 4 5 - - 0.0
30/10:30pm 8.9 7.3 8.1 95 0.4 NW 6 7 3 4 - - 0.0
30/10:00pm 9.3 7.8 8.5 95 0.4 NW 6 7 3 4 - - 0.0
30/09:30pm 9.1 7.4 8.3 95 0.4 NW 7 9 4 5 - - 0.0
30/09:00pm 9.3 7.6 8.5 95 0.4 NW 7 11 4 6 - - 0.0
30/08:30pm 8.8 7.0 7.9 94 0.4 NW 7 9 4 5 - - 0.0
30/08:00pm 9.3 7.7 8.2 93 0.5 NW 6 9 3 5 - - 0.0
30/07:30pm 9.8 8.2 8.6 92 0.6 NW 7 11 4 6 - - 0.0
30/07:00pm 10.1 7.3 8.7 91 0.7 WNW 13 17 7 9 - - 0.0
30/06:30pm 10.3 7.9 8.7 90 0.8 NW 11 15 6 8 - - 0.0
30/06:00pm 10.4 7.9 8.2 86 1.1 W 11 15 6 8 - - 0.0
30/05:30pm 10.9 8.8 8.3 84 1.3 WNW 9 11 5 6 - - 0.0
30/05:00pm 11.5 9.5 8.5 82 1.5 WNW 9 13 5 7 - - 0.0
30/04:30pm 11.8 10.3 8.6 81 1.6 WNW 6 7 3 4 - - 0.0
30/04:00pm 11.9 9.9 8.6 80 1.7 W 9 13 5 7 - - 0.0
30/03:30pm 11.9 8.7 8.4 79 1.7 W 15 20 8 11 - - 0.0
30/03:00pm 12.9 10.1 8.6 75 2.2 WNW 13 15 7 8 - - 0.0
30/02:30pm 14.1 12.0 9.9 76 2.2 NW 11 17 6 9 - - 0.0
30/02:00pm 13.0 10.6 8.7 75 2.2 NW 11 17 6 9 - - 0.0
30/01:30pm 12.8 10.9 8.9 77 2.0 NW 9 19 5 10 - - 0.0
30/01:00pm 12.8 10.7 8.1 73 2.3 NW 9 15 5 8 - - 0.0
30/12:30pm 12.4 10.0 7.1 70 2.6 NW 9 15 5 8 - - 0.0
30/12:00pm 12.7 10.3 8.6 76 2.1 WNW 11 17 6 9 - - 0.0
30/11:30am 12.1 9.7 8.6 79 1.8 NW 11 15 6 8 - - 0.0
30/11:00am 12.2 10.5 8.5 78 1.9 NW 7 13 4 7 - - 0.0
30/10:30am 11.5 10.4 8.4 81 1.5 N 4 7 2 4 - - 0.0
30/10:00am 10.2 7.0 8.6 90 0.8 W 15 20 8 11 - - 0.0
30/09:30am 9.8 6.9 8.2 90 0.8 WSW 13 19 7 10 - - 0.0
30/09:00am 9.3 7.2 8.1 92 0.6 WSW 9 11 5 6 - - 0.0
30/08:30am 8.2 6.5 7.4 95 0.4 W 6 7 3 4 - - 0.0
30/08:00am 6.9 5.2 6.0 94 0.4 WNW 4 6 2 3 - - 0.0
30/07:30am 7.1 5.4 6.0 93 0.5 WNW 4 6 2 3 - - 0.0
30/07:00am 7.1 5.0 6.0 93 0.5 NW 6 6 3 3 - - 0.0
30/06:30am 7.3 5.3 6.2 93 0.5 W 6 6 3 3 - - 0.0
30/06:00am 6.9 5.2 5.8 93 0.5 W 4 4 2 2 - - 0.0
30/05:30am 7.0 4.7 5.6 91 0.6 WNW 7 9 4 5 - - 0.0
30/05:00am 6.8 4.7 5.9 94 0.4 WNW 6 6 3 3 - - 0.0
30/04:30am 5.7 3.4 5.0 95 0.3 W 6 6 3 3 - - 0.0
30/04:00am 5.2 2.7 4.6 96 0.3 W 7 9 4 5 - - 0.0
30/03:30am 5.5 3.0 4.9 96 0.3 W 7 7 4 4 - - 0.0
30/03:00am 4.9 1.9 4.3 96 0.3 WSW 9 9 5 5 - - 0.0
30/02:30am 5.1 2.7 4.5 96 0.3 WSW 6 7 3 4 - - 0.0
30/02:00am 6.5 4.2 5.9 96 0.3 WNW 7 7 4 4 - - 0.0
30/01:30am 6.6 5.7 5.9 95 0.3 CALM 0 0 0 0 - - 0.0
30/01:00am 7.5 5.6 6.8 95 0.3 NW 6 7 3 4 - - 0.0
30/12:30am 7.7 5.8 6.8 94 0.4 N 6 6 3 3 - - 0.0
30/12:00am 7.7 5.5 6.3 91 0.6 NW 7 9 4 5 - - 0.0
 
Date/Time
CST
Temp
°C
App
Temp
°C
Dew
Point
Rel
Hum
%
Delta-T
°C
Wind Press
QNH
hPa
Press
MSL
hPa
Rain
since 9 am
mm
Dir
 
Spd
km/h
Gust
km/h
Spd
kts
Gust
kts
29/11:30pm 8.7 6.9 7.3 91 0.7 W 6 9 3 5 - - 0.0
29/11:00pm 8.9 7.0 7.5 91 0.7 W 7 7 4 4 - - 0.0
29/10:30pm 9.0 7.3 7.6 91 0.7 SW 6 7 3 4 - - 0.0
29/10:00pm 9.0 7.4 7.8 92 0.6 SW 6 7 3 4 - - 0.0
29/09:30pm 9.0 7.4 7.8 92 0.6 SW 6 6 3 3 - - 0.0
29/09:00pm 9.3 8.1 8.1 92 0.6 SSW 4 4 2 2 - - 0.0
29/08:30pm 9.5 8.3 8.1 91 0.7 SSW 4 4 2 2 - - 0.0
29/08:00pm 9.7 8.9 8.0 89 0.8 SSW 2 6 1 3 - - 0.0
29/07:30pm 9.8 8.6 7.9 88 0.9 SSW 4 6 2 3 - - 0.0
29/07:00pm 10.1 8.8 7.7 85 1.2 W 4 4 2 2 - - 0.0
29/06:30pm 10.2 9.4 6.7 79 1.7 CALM 0 0 0 0 - - 0.0
29/06:00pm 10.3 9.3 7.5 83 1.4 NW 2 2 1 1 - - 0.0
29/05:30pm 10.7 9.2 6.6 76 1.9 NW 4 4 2 2 - - 0.0
29/05:00pm 10.8 9.3 6.7 76 2.0 NW 4 4 2 2 - - 0.0
29/04:30pm 10.9 9.6 7.6 80 1.6 NW 4 6 2 3 - - 0.0
29/04:00pm 11.2 9.8 7.1 76 2.0 NNW 4 6 2 3 - - 0.0
29/03:30pm 11.5 10.0 6.8 73 2.3 NNW 4 6 2 3 - - 0.0
29/03:00pm 11.5 9.7 7.2 75 2.1 NW 6 7 3 4 - - 0.0
29/02:30pm 11.4 9.3 6.7 73 2.2 NNW 7 11 4 6 - - 0.0
29/02:00pm 11.7 9.6 6.8 72 2.4 NNW 7 9 4 5 - - 0.0
29/01:30pm 12.0 9.5 6.7 70 2.5 NNW 9 13 5 7 - - 0.0

Other Formats:

Comma delimited format used in spreadsheet applications
http://www.bom.gov.au/fwo/IDS60801/IDS60801.94807.axf

JavaScript Object Notation format (JSON) in row-major order
http://www.bom.gov.au/fwo/IDS60801/IDS60801.94807.json